Terminal Aerodrome Forecast
Issued by NWS

Home | Current Version | Previous Version | Text Only | Print | Product List | Glossary On
Versions: 1 2 3 4 5 6 7 8 9 10 11 12 13 14 15 16 17 18 19 20 21 22 23 24 25 26 27 28
000
FTUS43 KGRR 231429 AAA
TAFAZO
TAF AMD
KAZO 231429Z 2314/2412 26013G23KT P6SM -SN OVC015
      TEMPO 2314/2317 3SM -SN BR
     FM231700 28013G23KT 6SM -SN OVC010
     FM231800 30014G24KT P6SM -SHSN OVC015
     FM232100 32013G18KT P6SM OVC025
     FM240200 30013G17KT P6SM OVC015=

USA.gov is the U.S. government's official web portal to all federal, state and local government web resources and services.